sensor_id;sensor_type;location;lat;lon;timestamp;P1;durP1;ratioP1;P2;durP2;ratioP2
35188;SDS011;21762;54.480;18.556;2022-10-26T00:01:12;13.73;;;5.25;;
35188;SDS011;21762;54.480;18.556;2022-10-26T00:03:42;11.35;;;4.20;;
35188;SDS011;21762;54.480;18.556;2022-10-26T00:06:11;4.50;;;3.17;;
35188;SDS011;21762;54.480;18.556;2022-10-26T00:08:40;12.20;;;4.18;;
35188;SDS011;21762;54.480;18.556;2022-10-26T00:11:08;9.88;;;4.07;;
35188;SDS011;21762;54.480;18.556;2022-10-26T00:13:37;13.13;;;3.70;;
35188;SDS011;21762;54.480;18.556;2022-10-26T00:16:08;12.07;;;4.10;;
35188;SDS011;21762;54.480;18.556;2022-10-26T00:18:41;18.00;;;4.00;;
35188;SDS011;21762;54.480;18.556;2022-10-26T00:22:26;13.23;;;3.55;;
35188;SDS011;21762;54.480;18.556;2022-10-26T00:24:54;12.95;;;3.90;;
35188;SDS011;21762;54.480;18.556;2022-10-26T00:27:23;7.88;;;3.80;;
35188;SDS011;21762;54.480;18.556;2022-10-26T00:29:51;11.73;;;3.55;;
35188;SDS011;21762;54.480;18.556;2022-10-26T00:32:19;11.70;;;4.13;;
35188;SDS011;21762;54.480;18.556;2022-10-26T00:34:48;8.05;;;3.63;;
35188;SDS011;21762;54.480;18.556;2022-10-26T00:37:16;9.73;;;4.97;;
35188;SDS011;21762;54.480;18.556;2022-10-26T00:39:44;11.00;;;3.63;;
35188;SDS011;21762;54.480;18.556;2022-10-26T00:42:13;13.25;;;4.47;;
35188;SDS011;21762;54.480;18.556;2022-10-26T00:44:54;8.20;;;3.85;;
35188;SDS011;21762;54.480;18.556;2022-10-26T00:47:25;7.13;;;3.63;;
35188;SDS011;21762;54.480;18.556;2022-10-26T00:49:58;11.40;;;4.20;;
35188;SDS011;21762;54.480;18.556;2022-10-26T00:52:28;12.50;;;4.00;;
35188;SDS011;21762;54.480;18.556;2022-10-26T00:54:56;10.10;;;3.90;;
35188;SDS011;21762;54.480;18.556;2022-10-26T00:57:24;9.48;;;3.60;;
35188;SDS011;21762;54.480;18.556;2022-10-26T00:59:53;14.48;;;4.15;;
35188;SDS011;21762;54.480;18.556;2022-10-26T01:02:23;13.40;;;3.90;;
35188;SDS011;21762;54.480;18.556;2022-10-26T01:04:51;12.35;;;4.25;;
35188;SDS011;21762;54.480;18.556;2022-10-26T01:07:21;12.35;;;6.45;;
35188;SDS011;21762;54.480;18.556;2022-10-26T01:09:51;14.40;;;4.45;;
35188;SDS011;21762;54.480;18.556;2022-10-26T01:12:20;10.65;;;4.28;;
35188;SDS011;21762;54.480;18.556;2022-10-26T01:14:48;11.30;;;4.03;;
35188;SDS011;21762;54.480;18.556;2022-10-26T01:17:20;13.02;;;4.15;;
35188;SDS011;21762;54.480;18.556;2022-10-26T01:20:13;11.50;;;4.20;;
35188;SDS011;21762;54.480;18.556;2022-10-26T01:22:50;13.32;;;4.00;;
35188;SDS011;21762;54.480;18.556;2022-10-26T01:25:26;9.52;;;3.92;;
35188;SDS011;21762;54.480;18.556;2022-10-26T01:28:06;8.63;;;3.95;;
35188;SDS011;21762;54.480;18.556;2022-10-26T01:30:43;15.60;;;3.83;;
35188;SDS011;21762;54.480;18.556;2022-10-26T01:33:21;13.10;;;4.05;;
35188;SDS011;21762;54.480;18.556;2022-10-26T01:36:00;9.88;;;5.07;;
35188;SDS011;21762;54.480;18.556;2022-10-26T01:38:34;13.70;;;3.72;;
35188;SDS011;21762;54.480;18.556;2022-10-26T01:41:10;11.48;;;4.20;;
35188;SDS011;21762;54.480;18.556;2022-10-26T01:43:41;13.77;;;4.50;;
35188;SDS011;21762;54.480;18.556;2022-10-26T01:46:12;12.80;;;4.07;;
35188;SDS011;21762;54.480;18.556;2022-10-26T01:48:41;10.90;;;5.32;;
35188;SDS011;21762;54.480;18.556;2022-10-26T01:51:11;10.65;;;4.40;;
35188;SDS011;21762;54.480;18.556;2022-10-26T01:53:44;11.93;;;4.88;;
35188;SDS011;21762;54.480;18.556;2022-10-26T01:56:14;11.88;;;4.35;;
35188;SDS011;21762;54.480;18.556;2022-10-26T01:59:01;12.00;;;4.50;;
35188;SDS011;21762;54.480;18.556;2022-10-26T02:01:42;11.80;;;4.45;;
35188;SDS011;21762;54.480;18.556;2022-10-26T02:04:23;11.02;;;5.38;;
35188;SDS011;21762;54.480;18.556;2022-10-26T02:06:57;6.97;;;4.25;;
35188;SDS011;21762;54.480;18.556;2022-10-26T02:09:33;12.68;;;4.35;;
35188;SDS011;21762;54.480;18.556;2022-10-26T02:12:09;12.23;;;4.05;;
35188;SDS011;21762;54.480;18.556;2022-10-26T02:14:44;14.13;;;4.82;;
35188;SDS011;21762;54.480;18.556;2022-10-26T02:17:19;9.30;;;4.00;;
35188;SDS011;21762;54.480;18.556;2022-10-26T02:19:53;12.55;;;4.70;;
35188;SDS011;21762;54.480;18.556;2022-10-26T02:22:25;8.10;;;4.53;;
35188;SDS011;21762;54.480;18.556;2022-10-26T02:24:56;14.43;;;4.80;;
35188;SDS011;21762;54.480;18.556;2022-10-26T02:27:27;12.65;;;3.90;;
35188;SDS011;21762;54.480;18.556;2022-10-26T02:29:58;15.75;;;5.28;;
35188;SDS011;21762;54.480;18.556;2022-10-26T02:32:29;15.30;;;4.88;;
35188;SDS011;21762;54.480;18.556;2022-10-26T02:34:59;8.63;;;4.43;;
35188;SDS011;21762;54.480;18.556;2022-10-26T02:37:28;13.50;;;5.20;;
35188;SDS011;21762;54.480;18.556;2022-10-26T02:40:01;12.85;;;4.88;;
35188;SDS011;21762;54.480;18.556;2022-10-26T02:42:32;13.95;;;4.38;;
35188;SDS011;21762;54.480;18.556;2022-10-26T02:45:02;6.90;;;4.22;;
35188;SDS011;21762;54.480;18.556;2022-10-26T02:47:33;9.98;;;5.13;;
35188;SDS011;21762;54.480;18.556;2022-10-26T02:50:01;14.13;;;5.90;;
35188;SDS011;21762;54.480;18.556;2022-10-26T02:52:32;14.52;;;4.88;;
35188;SDS011;21762;54.480;18.556;2022-10-26T02:55:05;15.98;;;5.25;;
35188;SDS011;21762;54.480;18.556;2022-10-26T02:57:35;15.70;;;5.15;;
35188;SDS011;21762;54.480;18.556;2022-10-26T03:00:06;14.63;;;5.18;;
35188;SDS011;21762;54.480;18.556;2022-10-26T03:02:41;11.35;;;4.38;;
35188;SDS011;21762;54.480;18.556;2022-10-26T03:05:12;14.70;;;6.15;;
35188;SDS011;21762;54.480;18.556;2022-10-26T03:07:41;33.83;;;6.82;;
35188;SDS011;21762;54.480;18.556;2022-10-26T03:10:10;12.40;;;5.75;;
35188;SDS011;21762;54.480;18.556;2022-10-26T03:12:38;13.43;;;5.93;;
35188;SDS011;21762;54.480;18.556;2022-10-26T03:15:06;13.88;;;6.82;;
35188;SDS011;21762;54.480;18.556;2022-10-26T03:17:35;15.68;;;6.38;;
35188;SDS011;21762;54.480;18.556;2022-10-26T03:20:05;14.50;;;5.65;;
35188;SDS011;21762;54.480;18.556;2022-10-26T03:22:34;14.27;;;6.60;;
35188;SDS011;21762;54.480;18.556;2022-10-26T03:25:05;10.43;;;5.78;;
35188;SDS011;21762;54.480;18.556;2022-10-26T03:27:39;15.35;;;5.95;;
35188;SDS011;21762;54.480;18.556;2022-10-26T03:30:10;13.32;;;5.32;;
35188;SDS011;21762;54.480;18.556;2022-10-26T03:32:38;17.77;;;6.90;;
35188;SDS011;21762;54.480;18.556;2022-10-26T03:35:08;20.27;;;6.35;;
35188;SDS011;21762;54.480;18.556;2022-10-26T03:37:36;18.20;;;6.43;;
35188;SDS011;21762;54.480;18.556;2022-10-26T03:40:04;18.40;;;6.53;;
35188;SDS011;21762;54.480;18.556;2022-10-26T03:42:34;14.45;;;5.75;;
35188;SDS011;21762;54.480;18.556;2022-10-26T03:45:03;14.93;;;6.13;;
35188;SDS011;21762;54.480;18.556;2022-10-26T03:47:33;14.50;;;5.18;;
35188;SDS011;21762;54.480;18.556;2022-10-26T03:50:02;12.57;;;5.88;;
35188;SDS011;21762;54.480;18.556;2022-10-26T03:52:37;14.48;;;5.82;;
35188;SDS011;21762;54.480;18.556;2022-10-26T03:55:06;12.20;;;5.32;;
35188;SDS011;21762;54.480;18.556;2022-10-26T03:57:38;14.40;;;5.32;;
35188;SDS011;21762;54.480;18.556;2022-10-26T04:00:07;14.32;;;6.18;;
35188;SDS011;21762;54.480;18.556;2022-10-26T04:02:42;15.63;;;6.05;;
35188;SDS011;21762;54.480;18.556;2022-10-26T04:05:12;15.38;;;5.25;;
35188;SDS011;21762;54.480;18.556;2022-10-26T04:07:43;16.30;;;5.20;;
35188;SDS011;21762;54.480;18.556;2022-10-26T04:10:11;11.57;;;5.40;;
35188;SDS011;21762;54.480;18.556;2022-10-26T04:12:39;20.50;;;5.22;;
35188;SDS011;21762;54.480;18.556;2022-10-26T04:15:08;18.75;;;5.43;;
35188;SDS011;21762;54.480;18.556;2022-10-26T04:17:36;10.50;;;5.20;;
35188;SDS011;21762;54.480;18.556;2022-10-26T04:20:07;17.95;;;5.82;;
35188;SDS011;21762;54.480;18.556;2022-10-26T04:22:36;13.10;;;5.15;;
35188;SDS011;21762;54.480;18.556;2022-10-26T04:25:08;16.05;;;5.57;;
35188;SDS011;21762;54.480;18.556;2022-10-26T04:27:39;17.83;;;5.68;;
35188;SDS011;21762;54.480;18.556;2022-10-26T04:30:07;9.57;;;4.88;;
35188;SDS011;21762;54.480;18.556;2022-10-26T04:32:36;12.40;;;4.82;;
35188;SDS011;21762;54.480;18.556;2022-10-26T04:35:07;13.93;;;4.50;;
35188;SDS011;21762;54.480;18.556;2022-10-26T04:37:36;10.00;;;4.28;;
35188;SDS011;21762;54.480;18.556;2022-10-26T04:40:04;19.95;;;5.30;;
35188;SDS011;21762;54.480;18.556;2022-10-26T04:42:40;10.55;;;4.75;;
35188;SDS011;21762;54.480;18.556;2022-10-26T04:45:09;11.98;;;5.40;;
35188;SDS011;21762;54.480;18.556;2022-10-26T04:47:37;16.08;;;5.53;;
35188;SDS011;21762;54.480;18.556;2022-10-26T04:50:06;18.10;;;5.70;;
35188;SDS011;21762;54.480;18.556;2022-10-26T04:52:35;18.30;;;5.78;;
35188;SDS011;21762;54.480;18.556;2022-10-26T04:55:04;18.02;;;6.75;;
35188;SDS011;21762;54.480;18.556;2022-10-26T04:57:34;13.03;;;6.43;;
35188;SDS011;21762;54.480;18.556;2022-10-26T05:00:04;21.33;;;6.88;;
35188;SDS011;21762;54.480;18.556;2022-10-26T05:02:33;15.55;;;5.78;;
35188;SDS011;21762;54.480;18.556;2022-10-26T05:05:01;13.90;;;6.55;;
35188;SDS011;21762;54.480;18.556;2022-10-26T05:07:33;15.27;;;6.10;;
35188;SDS011;21762;54.480;18.556;2022-10-26T05:10:01;13.48;;;5.53;;
35188;SDS011;21762;54.480;18.556;2022-10-26T05:12:30;14.25;;;6.70;;
35188;SDS011;21762;54.480;18.556;2022-10-26T05:14:58;13.88;;;5.95;;
35188;SDS011;21762;54.480;18.556;2022-10-26T05:17:31;19.15;;;6.53;;
35188;SDS011;21762;54.480;18.556;2022-10-26T05:19:59;16.98;;;5.80;;
35188;SDS011;21762;54.480;18.556;2022-10-26T05:22:31;20.58;;;6.45;;
35188;SDS011;21762;54.480;18.556;2022-10-26T05:24:59;15.25;;;6.90;;
35188;SDS011;21762;54.480;18.556;2022-10-26T05:27:27;12.80;;;6.15;;
35188;SDS011;21762;54.480;18.556;2022-10-26T05:29:56;20.27;;;6.82;;
35188;SDS011;21762;54.480;18.556;2022-10-26T05:32:24;17.90;;;6.25;;
35188;SDS011;21762;54.480;18.556;2022-10-26T05:34:53;25.40;;;8.00;;
35188;SDS011;21762;54.480;18.556;2022-10-26T05:37:21;18.23;;;7.50;;
35188;SDS011;21762;54.480;18.556;2022-10-26T05:39:49;12.05;;;6.75;;
35188;SDS011;21762;54.480;18.556;2022-10-26T05:42:17;18.58;;;7.75;;
35188;SDS011;21762;54.480;18.556;2022-10-26T05:44:46;19.83;;;7.90;;
35188;SDS011;21762;54.480;18.556;2022-10-26T05:47:14;18.25;;;7.80;;
35188;SDS011;21762;54.480;18.556;2022-10-26T05:49:42;16.02;;;7.88;;
35188;SDS011;21762;54.480;18.556;2022-10-26T05:52:11;20.52;;;9.27;;
35188;SDS011;21762;54.480;18.556;2022-10-26T05:54:45;16.58;;;7.88;;
35188;SDS011;21762;54.480;18.556;2022-10-26T05:57:15;18.73;;;8.48;;
35188;SDS011;21762;54.480;18.556;2022-10-26T05:59:43;15.82;;;7.80;;
35188;SDS011;21762;54.480;18.556;2022-10-26T06:02:13;18.48;;;7.45;;
35188;SDS011;21762;54.480;18.556;2022-10-26T06:04:46;18.92;;;7.90;;
35188;SDS011;21762;54.480;18.556;2022-10-26T06:07:18;16.30;;;7.97;;
35188;SDS011;21762;54.480;18.556;2022-10-26T06:09:47;16.92;;;8.32;;
35188;SDS011;21762;54.480;18.556;2022-10-26T06:12:16;17.48;;;7.60;;
35188;SDS011;21762;54.480;18.556;2022-10-26T06:14:45;14.73;;;6.93;;
35188;SDS011;21762;54.480;18.556;2022-10-26T06:20:11;17.70;;;7.28;;
35188;SDS011;21762;54.480;18.556;2022-10-26T06:22:54;16.20;;;6.63;;
35188;SDS011;21762;54.480;18.556;2022-10-26T06:25:31;21.88;;;8.25;;
35188;SDS011;21762;54.480;18.556;2022-10-26T06:28:06;20.33;;;8.23;;
35188;SDS011;21762;54.480;18.556;2022-10-26T06:30:39;23.45;;;7.85;;
35188;SDS011;21762;54.480;18.556;2022-10-26T06:33:08;20.02;;;8.48;;
35188;SDS011;21762;54.480;18.556;2022-10-26T06:35:45;18.23;;;6.70;;
35188;SDS011;21762;54.480;18.556;2022-10-26T06:38:17;13.45;;;7.25;;
35188;SDS011;21762;54.480;18.556;2022-10-26T06:40:48;18.55;;;7.00;;
35188;SDS011;21762;54.480;18.556;2022-10-26T06:43:19;16.40;;;8.07;;
35188;SDS011;21762;54.480;18.556;2022-10-26T06:45:53;17.05;;;7.07;;
35188;SDS011;21762;54.480;18.556;2022-10-26T06:48:26;15.82;;;6.45;;
35188;SDS011;21762;54.480;18.556;2022-10-26T06:50:56;16.17;;;5.85;;
35188;SDS011;21762;54.480;18.556;2022-10-26T06:53:28;31.48;;;7.60;;
35188;SDS011;21762;54.480;18.556;2022-10-26T06:55:58;22.08;;;8.25;;
35188;SDS011;21762;54.480;18.556;2022-10-26T06:58:28;19.17;;;6.93;;
35188;SDS011;21762;54.480;18.556;2022-10-26T07:00:59;18.15;;;5.85;;
35188;SDS011;21762;54.480;18.556;2022-10-26T07:03:28;15.15;;;5.72;;
35188;SDS011;21762;54.480;18.556;2022-10-26T07:05:56;34.00;;;8.40;;
35188;SDS011;21762;54.480;18.556;2022-10-26T07:08:24;17.95;;;5.80;;
35188;SDS011;21762;54.480;18.556;2022-10-26T07:10:54;12.57;;;5.63;;
35188;SDS011;21762;54.480;18.556;2022-10-26T07:13:22;14.23;;;4.72;;
35188;SDS011;21762;54.480;18.556;2022-10-26T07:15:50;13.30;;;4.68;;
35188;SDS011;21762;54.480;18.556;2022-10-26T07:18:18;11.00;;;4.75;;
35188;SDS011;21762;54.480;18.556;2022-10-26T07:20:46;13.77;;;4.60;;
35188;SDS011;21762;54.480;18.556;2022-10-26T07:23:16;13.77;;;4.85;;
35188;SDS011;21762;54.480;18.556;2022-10-26T07:25:44;14.57;;;4.63;;
35188;SDS011;21762;54.480;18.556;2022-10-26T07:28:14;17.40;;;4.93;;
35188;SDS011;21762;54.480;18.556;2022-10-26T07:30:42;10.35;;;4.22;;
35188;SDS011;21762;54.480;18.556;2022-10-26T07:33:11;13.68;;;4.70;;
35188;SDS011;21762;54.480;18.556;2022-10-26T07:35:40;15.20;;;3.92;;
35188;SDS011;21762;54.480;18.556;2022-10-26T07:38:08;10.65;;;4.20;;
35188;SDS011;21762;54.480;18.556;2022-10-26T07:40:39;7.72;;;3.95;;
35188;SDS011;21762;54.480;18.556;2022-10-26T07:43:07;16.83;;;4.03;;
35188;SDS011;21762;54.480;18.556;2022-10-26T07:45:36;8.65;;;3.28;;
35188;SDS011;21762;54.480;18.556;2022-10-26T07:48:06;8.63;;;3.80;;
35188;SDS011;21762;54.480;18.556;2022-10-26T07:50:34;10.93;;;4.32;;
35188;SDS011;21762;54.480;18.556;2022-10-26T07:53:02;11.23;;;3.50;;
35188;SDS011;21762;54.480;18.556;2022-10-26T07:55:30;7.57;;;2.90;;
35188;SDS011;21762;54.480;18.556;2022-10-26T07:57:58;9.82;;;3.00;;
35188;SDS011;21762;54.480;18.556;2022-10-26T08:00:26;8.23;;;3.10;;
35188;SDS011;21762;54.480;18.556;2022-10-26T08:02:56;10.48;;;3.47;;
35188;SDS011;21762;54.480;18.556;2022-10-26T08:05:25;10.43;;;2.97;;
35188;SDS011;21762;54.480;18.556;2022-10-26T08:07:53;10.05;;;2.85;;
35188;SDS011;21762;54.480;18.556;2022-10-26T08:10:21;10.77;;;3.15;;
35188;SDS011;21762;54.480;18.556;2022-10-26T08:12:51;8.50;;;2.78;;
35188;SDS011;21762;54.480;18.556;2022-10-26T08:15:19;9.63;;;2.83;;
35188;SDS011;21762;54.480;18.556;2022-10-26T08:17:48;7.95;;;2.35;;
35188;SDS011;21762;54.480;18.556;2022-10-26T08:20:17;9.45;;;2.67;;
35188;SDS011;21762;54.480;18.556;2022-10-26T08:22:47;7.22;;;3.45;;
35188;SDS011;21762;54.480;18.556;2022-10-26T08:25:15;6.68;;;2.88;;
35188;SDS011;21762;54.480;18.556;2022-10-26T08:27:44;6.25;;;2.20;;
35188;SDS011;21762;54.480;18.556;2022-10-26T08:30:12;7.13;;;2.75;;
35188;SDS011;21762;54.480;18.556;2022-10-26T08:32:41;9.25;;;2.92;;
35188;SDS011;21762;54.480;18.556;2022-10-26T08:35:09;11.48;;;3.17;;
35188;SDS011;21762;54.480;18.556;2022-10-26T08:37:38;11.18;;;3.17;;
35188;SDS011;21762;54.480;18.556;2022-10-26T08:40:08;8.48;;;2.75;;
35188;SDS011;21762;54.480;18.556;2022-10-26T08:42:39;6.88;;;3.00;;
35188;SDS011;21762;54.480;18.556;2022-10-26T08:45:11;6.78;;;2.75;;
35188;SDS011;21762;54.480;18.556;2022-10-26T08:47:45;8.18;;;4.03;;
35188;SDS011;21762;54.480;18.556;2022-10-26T08:50:16;7.30;;;3.08;;
35188;SDS011;21762;54.480;18.556;2022-10-26T08:52:55;8.82;;;3.00;;
35188;SDS011;21762;54.480;18.556;2022-10-26T08:55:31;7.32;;;3.40;;
35188;SDS011;21762;54.480;18.556;2022-10-26T08:58:01;4.45;;;2.50;;
35188;SDS011;21762;54.480;18.556;2022-10-26T09:00:37;5.10;;;2.40;;
35188;SDS011;21762;54.480;18.556;2022-10-26T09:03:10;9.45;;;3.22;;
35188;SDS011;21762;54.480;18.556;2022-10-26T09:05:44;10.63;;;3.78;;
35188;SDS011;21762;54.480;18.556;2022-10-26T09:08:26;10.27;;;2.90;;
35188;SDS011;21762;54.480;18.556;2022-10-26T09:10:59;8.55;;;2.80;;
35188;SDS011;21762;54.480;18.556;2022-10-26T09:13:34;6.03;;;2.90;;
35188;SDS011;21762;54.480;18.556;2022-10-26T09:16:09;6.70;;;3.17;;
35188;SDS011;21762;54.480;18.556;2022-10-26T09:18:44;10.60;;;3.55;;
35188;SDS011;21762;54.480;18.556;2022-10-26T09:21:21;7.10;;;2.60;;
35188;SDS011;21762;54.480;18.556;2022-10-26T09:24:01;11.20;;;2.83;;
35188;SDS011;21762;54.480;18.556;2022-10-26T09:26:35;11.50;;;3.22;;
35188;SDS011;21762;54.480;18.556;2022-10-26T09:29:06;9.77;;;3.53;;
35188;SDS011;21762;54.480;18.556;2022-10-26T09:31:41;6.18;;;2.70;;
35188;SDS011;21762;54.480;18.556;2022-10-26T09:34:15;10.45;;;3.42;;
35188;SDS011;21762;54.480;18.556;2022-10-26T09:36:50;9.10;;;3.40;;
35188;SDS011;21762;54.480;18.556;2022-10-26T09:39:25;9.38;;;2.90;;
35188;SDS011;21762;54.480;18.556;2022-10-26T09:41:58;10.50;;;3.15;;
35188;SDS011;21762;54.480;18.556;2022-10-26T09:44:28;8.50;;;2.72;;
35188;SDS011;21762;54.480;18.556;2022-10-26T09:47:00;10.00;;;2.85;;
35188;SDS011;21762;54.480;18.556;2022-10-26T09:49:34;7.60;;;2.90;;
35188;SDS011;21762;54.480;18.556;2022-10-26T09:52:06;8.57;;;2.75;;
35188;SDS011;21762;54.480;18.556;2022-10-26T09:54:41;10.35;;;3.50;;
35188;SDS011;21762;54.480;18.556;2022-10-26T09:57:10;6.18;;;2.35;;
35188;SDS011;21762;54.480;18.556;2022-10-26T09:59:41;12.68;;;4.38;;
35188;SDS011;21762;54.480;18.556;2022-10-26T10:05:01;6.43;;;2.42;;
35188;SDS011;21762;54.480;18.556;2022-10-26T10:07:48;6.38;;;2.30;;
35188;SDS011;21762;54.480;18.556;2022-10-26T10:10:18;7.82;;;2.50;;
35188;SDS011;21762;54.480;18.556;2022-10-26T10:12:49;11.52;;;2.55;;
35188;SDS011;21762;54.480;18.556;2022-10-26T10:15:19;8.40;;;2.40;;
35188;SDS011;21762;54.480;18.556;2022-10-26T10:17:49;6.53;;;2.35;;
35188;SDS011;21762;54.480;18.556;2022-10-26T10:20:18;6.90;;;2.10;;
35188;SDS011;21762;54.480;18.556;2022-10-26T10:22:54;8.18;;;2.60;;
35188;SDS011;21762;54.480;18.556;2022-10-26T10:25:30;5.47;;;2.30;;
35188;SDS011;21762;54.480;18.556;2022-10-26T10:28:00;7.15;;;2.50;;
35188;SDS011;21762;54.480;18.556;2022-10-26T10:30:29;5.03;;;2.05;;
35188;SDS011;21762;54.480;18.556;2022-10-26T10:33:05;5.13;;;2.33;;
35188;SDS011;21762;54.480;18.556;2022-10-26T10:35:34;7.07;;;2.30;;
35188;SDS011;21762;54.480;18.556;2022-10-26T10:38:02;5.68;;;2.10;;
35188;SDS011;21762;54.480;18.556;2022-10-26T10:40:49;5.03;;;1.92;;
35188;SDS011;21762;54.480;18.556;2022-10-26T10:43:19;5.78;;;1.83;;
35188;SDS011;21762;54.480;18.556;2022-10-26T10:45:48;8.52;;;1.98;;
35188;SDS011;21762;54.480;18.556;2022-10-26T10:48:18;6.90;;;1.50;;
35188;SDS011;21762;54.480;18.556;2022-10-26T10:50:51;3.78;;;1.27;;
35188;SDS011;21762;54.480;18.556;2022-10-26T10:53:21;8.85;;;1.70;;
35188;SDS011;21762;54.480;18.556;2022-10-26T10:58:48;12.45;;;2.88;;
35188;SDS011;21762;54.480;18.556;2022-10-26T11:01:22;6.53;;;1.65;;
35188;SDS011;21762;54.480;18.556;2022-10-26T11:04:02;5.18;;;1.95;;
35188;SDS011;21762;54.480;18.556;2022-10-26T11:06:43;5.88;;;2.00;;
35188;SDS011;21762;54.480;18.556;2022-10-26T11:09:12;4.32;;;1.65;;
35188;SDS011;21762;54.480;18.556;2022-10-26T11:11:46;7.40;;;2.00;;
35188;SDS011;21762;54.480;18.556;2022-10-26T11:14:16;3.72;;;1.35;;
35188;SDS011;21762;54.480;18.556;2022-10-26T11:16:46;3.42;;;2.08;;
35188;SDS011;21762;54.480;18.556;2022-10-26T11:19:17;3.55;;;1.58;;
35188;SDS011;21762;54.480;18.556;2022-10-26T11:21:47;6.10;;;1.70;;
35188;SDS011;21762;54.480;18.556;2022-10-26T11:24:19;7.50;;;1.60;;
35188;SDS011;21762;54.480;18.556;2022-10-26T11:26:53;11.25;;;2.05;;
35188;SDS011;21762;54.480;18.556;2022-10-26T11:29:28;7.70;;;1.90;;
35188;SDS011;21762;54.480;18.556;2022-10-26T11:32:01;3.38;;;1.50;;
35188;SDS011;21762;54.480;18.556;2022-10-26T11:37:03;5.70;;;1.77;;
35188;SDS011;21762;54.480;18.556;2022-10-26T11:39:35;5.43;;;1.97;;
35188;SDS011;21762;54.480;18.556;2022-10-26T11:42:10;7.43;;;2.08;;
35188;SDS011;21762;54.480;18.556;2022-10-26T11:44:47;4.28;;;2.47;;
35188;SDS011;21762;54.480;18.556;2022-10-26T11:47:20;5.45;;;1.92;;
35188;SDS011;21762;54.480;18.556;2022-10-26T11:49:51;5.68;;;2.13;;
35188;SDS011;21762;54.480;18.556;2022-10-26T11:52:24;6.75;;;1.80;;
35188;SDS011;21762;54.480;18.556;2022-10-26T11:54:55;4.35;;;1.45;;
35188;SDS011;21762;54.480;18.556;2022-10-26T11:57:29;10.88;;;1.75;;
35188;SDS011;21762;54.480;18.556;2022-10-26T12:00:00;7.63;;;1.80;;
35188;SDS011;21762;54.480;18.556;2022-10-26T12:02:30;5.53;;;2.27;;
35188;SDS011;21762;54.480;18.556;2022-10-26T12:05:02;4.40;;;1.55;;
35188;SDS011;21762;54.480;18.556;2022-10-26T12:07:33;5.05;;;2.22;;
35188;SDS011;21762;54.480;18.556;2022-10-26T12:10:03;8.77;;;1.60;;
35188;SDS011;21762;54.480;18.556;2022-10-26T12:12:37;9.88;;;2.25;;
35188;SDS011;21762;54.480;18.556;2022-10-26T12:15:13;5.85;;;2.25;;
35188;SDS011;21762;54.480;18.556;2022-10-26T12:17:46;5.18;;;3.10;;
35188;SDS011;21762;54.480;18.556;2022-10-26T12:20:27;4.28;;;1.73;;
35188;SDS011;21762;54.480;18.556;2022-10-26T12:23:09;6.38;;;1.83;;
35188;SDS011;21762;54.480;18.556;2022-10-26T12:25:39;3.90;;;2.20;;
35188;SDS011;21762;54.480;18.556;2022-10-26T12:28:17;8.80;;;2.15;;
35188;SDS011;21762;54.480;18.556;2022-10-26T12:34:10;8.48;;;2.50;;
35188;SDS011;21762;54.480;18.556;2022-10-26T12:36:48;10.38;;;2.15;;
35188;SDS011;21762;54.480;18.556;2022-10-26T12:39:26;10.98;;;3.20;;
35188;SDS011;21762;54.480;18.556;2022-10-26T12:41:56;8.02;;;1.85;;
35188;SDS011;21762;54.480;18.556;2022-10-26T12:44:33;7.43;;;1.77;;
35188;SDS011;21762;54.480;18.556;2022-10-26T12:47:02;7.30;;;1.60;;
35188;SDS011;21762;54.480;18.556;2022-10-26T12:52:32;7.10;;;1.65;;
35188;SDS011;21762;54.480;18.556;2022-10-26T12:55:15;6.20;;;1.75;;
35188;SDS011;21762;54.480;18.556;2022-10-26T12:58:10;7.55;;;2.13;;
35188;SDS011;21762;54.480;18.556;2022-10-26T13:01:06;4.88;;;1.60;;
35188;SDS011;21762;54.480;18.556;2022-10-26T13:03:39;9.13;;;2.00;;
35188;SDS011;21762;54.480;18.556;2022-10-26T13:06:16;9.85;;;2.47;;
35188;SDS011;21762;54.480;18.556;2022-10-26T13:08:55;5.45;;;2.10;;
35188;SDS011;21762;54.480;18.556;2022-10-26T13:11:26;6.40;;;1.63;;
35188;SDS011;21762;54.480;18.556;2022-10-26T13:13:56;7.57;;;2.70;;
35188;SDS011;21762;54.480;18.556;2022-10-26T13:16:27;4.32;;;1.63;;
35188;SDS011;21762;54.480;18.556;2022-10-26T13:18:55;9.80;;;1.60;;
35188;SDS011;21762;54.480;18.556;2022-10-26T13:21:24;3.83;;;1.52;;
35188;SDS011;21762;54.480;18.556;2022-10-26T13:23:55;3.70;;;1.70;;
35188;SDS011;21762;54.480;18.556;2022-10-26T13:26:28;3.10;;;1.50;;
35188;SDS011;21762;54.480;18.556;2022-10-26T13:28:57;9.52;;;2.28;;
35188;SDS011;21762;54.480;18.556;2022-10-26T13:34:21;5.43;;;1.42;;
35188;SDS011;21762;54.480;18.556;2022-10-26T13:36:52;6.82;;;1.92;;
35188;SDS011;21762;54.480;18.556;2022-10-26T13:39:25;3.60;;;1.48;;
35188;SDS011;21762;54.480;18.556;2022-10-26T13:41:54;8.07;;;1.63;;
35188;SDS011;21762;54.480;18.556;2022-10-26T13:44:24;5.20;;;1.35;;
35188;SDS011;21762;54.480;18.556;2022-10-26T13:46:57;6.75;;;1.80;;
35188;SDS011;21762;54.480;18.556;2022-10-26T13:49:29;11.48;;;1.70;;
35188;SDS011;21762;54.480;18.556;2022-10-26T13:54:29;4.13;;;1.60;;
35188;SDS011;21762;54.480;18.556;2022-10-26T13:57:03;5.00;;;1.88;;
35188;SDS011;21762;54.480;18.556;2022-10-26T13:59:38;4.80;;;1.50;;
35188;SDS011;21762;54.480;18.556;2022-10-26T14:02:21;4.68;;;1.30;;
35188;SDS011;21762;54.480;18.556;2022-10-26T14:04:51;7.70;;;1.70;;
35188;SDS011;21762;54.480;18.556;2022-10-26T14:07:22;6.60;;;1.65;;
35188;SDS011;21762;54.480;18.556;2022-10-26T14:09:52;11.90;;;1.77;;
35188;SDS011;21762;54.480;18.556;2022-10-26T14:12:21;4.20;;;1.30;;
35188;SDS011;21762;54.480;18.556;2022-10-26T14:14:50;10.82;;;1.52;;
35188;SDS011;21762;54.480;18.556;2022-10-26T14:17:20;2.28;;;1.48;;
35188;SDS011;21762;54.480;18.556;2022-10-26T14:19:49;5.90;;;1.65;;
35188;SDS011;21762;54.480;18.556;2022-10-26T14:22:19;7.50;;;1.50;;
35188;SDS011;21762;54.480;18.556;2022-10-26T14:24:49;6.22;;;2.20;;
35188;SDS011;21762;54.480;18.556;2022-10-26T14:27:19;9.52;;;2.03;;
35188;SDS011;21762;54.480;18.556;2022-10-26T14:29:48;8.45;;;2.08;;
35188;SDS011;21762;54.480;18.556;2022-10-26T14:32:30;9.13;;;2.30;;
35188;SDS011;21762;54.480;18.556;2022-10-26T14:35:01;6.93;;;2.30;;
35188;SDS011;21762;54.480;18.556;2022-10-26T14:37:33;6.18;;;2.60;;
35188;SDS011;21762;54.480;18.556;2022-10-26T14:40:09;12.48;;;2.80;;
35188;SDS011;21762;54.480;18.556;2022-10-26T14:42:41;8.02;;;2.50;;
35188;SDS011;21762;54.480;18.556;2022-10-26T14:45:24;9.77;;;2.50;;
35188;SDS011;21762;54.480;18.556;2022-10-26T14:48:17;9.23;;;2.72;;
35188;SDS011;21762;54.480;18.556;2022-10-26T14:51:09;10.00;;;2.70;;
35188;SDS011;21762;54.480;18.556;2022-10-26T14:53:46;13.77;;;2.67;;
35188;SDS011;21762;54.480;18.556;2022-10-26T14:59:09;9.50;;;2.60;;
35188;SDS011;21762;54.480;18.556;2022-10-26T15:04:33;9.88;;;2.03;;
35188;SDS011;21762;54.480;18.556;2022-10-26T15:07:07;5.57;;;2.97;;
35188;SDS011;21762;54.480;18.556;2022-10-26T15:09:42;10.23;;;2.95;;
35188;SDS011;21762;54.480;18.556;2022-10-26T15:12:28;8.10;;;3.22;;
35188;SDS011;21762;54.480;18.556;2022-10-26T15:14:59;14.15;;;4.47;;
35188;SDS011;21762;54.480;18.556;2022-10-26T15:17:35;11.80;;;3.72;;
35188;SDS011;21762;54.480;18.556;2022-10-26T15:20:13;13.18;;;3.85;;
35188;SDS011;21762;54.480;18.556;2022-10-26T15:22:47;14.88;;;4.07;;